Time;durP1;ratioP1;P1;durP2;ratioP2;P2;SDS_P1;SDS_P2;PMS_P1;PMS_P2;Temp;Humidity;BMP_temperature;BMP_pressure;BME280_temperature;BME280_humidity;BME280_pressure;Samples;Min_cycle;Max_cycle;Signal;HPM_P1;HPM_P2
2024/02/02 00:00:41;;;;;;;22.20;16.57;;;5.80;99.90;;;;;;5011735;28;20725;-60
2024/02/02 00:03:08;;;;;;;23.47;17.00;;;5.90;99.90;;;;;;5011340;28;20208;-60
2024/02/02 00:05:35;;;;;;;21.53;14.90;;;5.90;99.90;;;;;;5011685;28;20200;-60
2024/02/02 00:08:02;;;;;;;23.37;17.00;;;5.90;99.90;;;;;;5012982;28;20259;-60
2024/02/02 00:10:31;;;;;;;21.13;16.90;;;5.90;99.90;;;;;;5015621;28;20285;-60
2024/02/02 00:12:58;;;;;;;19.63;16.13;;;5.80;99.90;;;;;;5014481;28;20262;-60
2024/02/02 00:15:24;;;;;;;22.80;15.63;;;5.90;99.90;;;;;;5015173;28;20201;-60
2024/02/02 00:17:50;;;;;;;23.10;15.80;;;5.90;99.90;;;;;;5015470;28;20255;-60
2024/02/02 00:20:17;;;;;;;20.27;15.13;;;5.80;99.90;;;;;;5015296;28;20228;-60
2024/02/02 00:22:44;;;;;;;20.77;15.20;;;5.70;99.90;;;;;;5014379;28;20205;-60
2024/02/02 00:25:11;;;;;;;17.27;14.10;;;5.90;99.90;;;;;;5014983;28;20263;-60
2024/02/02 00:27:40;;;;;;;20.20;14.60;;;5.80;99.90;;;;;;5015518;28;20201;-60
2024/02/02 00:30:07;;;;;;;21.80;16.90;;;5.90;99.90;;;;;;5015029;28;20228;-60
2024/02/02 00:32:34;;;;;;;21.30;15.53;;;5.90;99.90;;;;;;5014280;28;20725;-59
2024/02/02 00:35:01;;;;;;;21.93;16.53;;;5.90;99.90;;;;;;5014919;28;20486;-60
2024/02/02 00:37:28;;;;;;;19.87;16.83;;;5.90;99.90;;;;;;5015096;28;20201;-60
2024/02/02 00:39:55;;;;;;;20.43;16.37;;;6.00;99.90;;;;;;5015072;28;20774;-60
2024/02/02 00:42:22;;;;;;;18.77;15.17;;;6.00;99.90;;;;;;5014425;28;20941;-60
2024/02/02 00:44:51;;;;;;;21.17;16.90;;;6.00;99.90;;;;;;5015410;28;20261;-60
2024/02/02 00:47:18;;;;;;;19.97;16.53;;;6.00;99.90;;;;;;5015180;28;20203;-60
2024/02/02 00:49:45;;;;;;;28.10;19.20;;;6.00;99.90;;;;;;5015470;28;20316;-60
2024/02/02 00:52:12;;;;;;;24.53;18.27;;;5.90;99.90;;;;;;5014512;28;20259;-60
2024/02/02 00:54:39;;;;;;;23.03;17.73;;;5.90;99.90;;;;;;5013248;28;20660;-60
2024/02/02 00:57:06;;;;;;;24.43;17.50;;;5.80;99.90;;;;;;5015056;28;20285;-60
2024/02/02 00:59:33;;;;;;;23.33;17.40;;;5.90;99.90;;;;;;5013011;28;20209;-59
2024/02/02 01:02:01;;;;;;;20.47;16.87;;;5.90;99.90;;;;;;5014738;28;20216;-60
2024/02/02 01:04:28;;;;;;;22.40;16.73;;;5.70;99.90;;;;;;5014311;28;20553;-59
2024/02/02 01:06:55;;;;;;;23.40;18.27;;;5.80;99.90;;;;;;5014202;28;20596;-60
2024/02/02 01:09:22;;;;;;;24.37;18.00;;;5.90;99.90;;;;;;5014553;28;20228;-60
2024/02/02 01:11:53;;;;;;;24.00;18.60;;;5.80;99.90;;;;;;5013782;28;20220;-60
2024/02/02 01:14:20;;;;;;;27.37;18.63;;;5.90;99.90;;;;;;5014394;28;20217;-60
2024/02/02 01:16:47;;;;;;;18.83;16.73;;;5.70;99.90;;;;;;5014052;28;20259;-59
2024/02/02 01:19:16;;;;;;;22.73;18.23;;;5.70;99.90;;;;;;5013949;28;20202;-60
2024/02/02 01:21:43;;;;;;;20.73;17.73;;;5.60;99.90;;;;;;5013288;28;20786;-59
2024/02/02 01:24:10;;;;;;;23.33;19.03;;;5.70;99.90;;;;;;5013996;28;20251;-60
2024/02/02 01:26:37;;;;;;;22.73;18.17;;;5.70;99.90;;;;;;5014019;28;20291;-60
2024/02/02 01:29:04;;;;;;;25.03;18.83;;;5.70;99.90;;;;;;5014023;28;20226;-60
2024/02/02 01:31:31;;;;;;;24.10;17.97;;;5.60;99.90;;;;;;5013974;28;20224;-60
2024/02/02 01:33:58;;;;;;;24.53;17.70;;;5.60;99.90;;;;;;5013176;28;20205;-59
2024/02/02 01:36:27;;;;;;;22.27;19.00;;;;;;;;;;5013698;28;20248;-60
2024/02/02 01:38:54;;;;;;;21.50;17.13;;;4.80;99.90;;;;;;5014078;28;20681;-60
2024/02/02 01:41:21;;;;;;;22.00;17.07;;;5.70;99.90;;;;;;5013832;28;20716;-60
2024/02/02 01:43:48;;;;;;;21.73;17.43;;;5.70;99.90;;;;;;5012880;28;20209;-59
2024/02/02 01:46:15;;;;;;;23.17;19.03;;;5.60;99.90;;;;;;5013859;28;20196;-60
2024/02/02 01:48:42;;;;;;;22.83;17.63;;;5.70;99.90;;;;;;5013970;28;20232;-60
2024/02/02 01:51:09;;;;;;;26.60;19.63;;;5.70;99.90;;;;;;5014131;28;20228;-60
2024/02/02 01:53:38;;;;;;;21.63;18.37;;;5.60;99.90;;;;;;5012880;28;20627;-60
2024/02/02 01:56:06;;;;;;;25.17;19.13;;;5.70;99.90;;;;;;5013432;28;20202;-60
2024/02/02 01:58:33;;;;;;;27.13;19.23;;;5.80;99.90;;;;;;5013527;28;20204;-60
2024/02/02 02:01:01;;;;;;;28.17;19.77;;;5.60;99.90;;;;;;5013427;28;20234;-60
2024/02/02 02:03:28;;;;;;;22.23;18.40;;;5.80;99.90;;;;;;5012709;28;20204;-60
2024/02/02 02:05:55;;;;;;;26.60;19.90;;;5.80;99.90;;;;;;5013373;28;20198;-60
2024/02/02 02:08:22;;;;;;;24.93;18.57;;;5.70;99.90;;;;;;5032647;28;20203;-60
2024/02/02 02:10:50;;;;;;;28.77;20.17;;;5.50;99.90;;;;;;5033101;28;20285;-60
2024/02/02 02:13:17;;;;;;;25.83;20.37;;;5.80;99.90;;;;;;5032327;28;20270;-60
2024/02/02 02:15:44;;;;;;;28.43;20.53;;;5.60;99.90;;;;;;5029485;28;20204;-60
2024/02/02 02:18:11;;;;;;;26.50;18.63;;;5.60;99.90;;;;;;5013287;28;20681;-60
2024/02/02 02:20:40;;;;;;;24.77;19.47;;;5.60;99.90;;;;;;5012901;28;20221;-60
2024/02/02 02:23:09;;;;;;;23.43;18.07;;;5.60;99.90;;;;;;5012498;28;20211;-60
2024/02/02 02:25:36;;;;;;;26.73;18.47;;;5.50;99.90;;;;;;5012879;28;20256;-60
2024/02/02 02:28:03;;;;;;;24.97;20.63;;;5.60;99.90;;;;;;5030392;28;20207;-59
2024/02/02 02:30:30;;;;;;;24.90;18.40;;;5.70;99.90;;;;;;5032383;28;20788;-60
2024/02/02 02:32:58;;;;;;;25.97;20.27;;;5.60;99.90;;;;;;5031387;28;20735;-59
2024/02/02 02:35:25;;;;;;;23.80;18.83;;;5.70;99.90;;;;;;5027339;28;20201;-60
2024/02/02 02:37:53;;;;;;;22.17;17.60;;;5.70;99.90;;;;;;5013046;28;20201;-60
2024/02/02 02:40:21;;;;;;;22.97;17.33;;;5.70;99.90;;;;;;5013109;28;20716;-60
2024/02/02 02:42:50;;;;;;;23.17;18.00;;;5.70;99.90;;;;;;5011981;28;20200;-60
2024/02/02 02:45:17;;;;;;;23.10;19.00;;;5.60;99.90;;;;;;5012678;28;20200;-60
2024/02/02 02:47:44;;;;;;;22.47;18.07;;;5.70;99.90;;;;;;5012614;28;20209;-60
2024/02/02 02:50:11;;;;;;;23.33;18.13;;;5.60;99.90;;;;;;5012533;28;20594;-59
2024/02/02 02:52:38;;;;;;;22.10;17.10;;;5.70;99.90;;;;;;5011640;28;20285;-60
2024/02/02 02:55:05;;;;;;;23.77;17.57;;;5.60;99.90;;;;;;5010010;28;20202;-60
2024/02/02 02:57:34;;;;;;;25.43;18.00;;;5.60;99.90;;;;;;4991031;28;20247;-60
2024/02/02 03:00:01;;;;;;;28.87;18.30;;;5.60;99.90;;;;;;5027169;28;20288;-60
2024/02/02 03:02:28;;;;;;;22.30;16.93;;;5.60;99.90;;;;;;5029575;28;20203;-60
2024/02/02 03:04:55;;;;;;;21.77;17.13;;;5.60;99.90;;;;;;5028997;28;20774;-60
2024/02/02 03:07:22;;;;;;;22.00;17.47;;;5.60;99.90;;;;;;5012098;28;20204;-60
2024/02/02 03:09:49;;;;;;;22.57;16.60;;;5.60;99.90;;;;;;5012221;28;20226;-60
2024/02/02 03:12:16;;;;;;;18.13;15.37;;;5.50;99.90;;;;;;5011814;28;20265;-60
2024/02/02 03:14:45;;;;;;;20.90;16.20;;;5.50;99.90;;;;;;5011908;28;20637;-60
2024/02/02 03:17:12;;;;;;;19.97;15.90;;;;;;;;;;5012263;28;20254;-60
2024/02/02 03:19:39;;;;;;;22.97;17.50;;;5.30;99.90;;;;;;5011899;28;20204;-60
2024/02/02 03:22:06;;;;;;;24.47;17.43;;;5.40;99.90;;;;;;5011262;28;20206;-60
2024/02/02 03:24:33;;;;;;;24.63;18.77;;;5.40;99.90;;;;;;5011958;28;20691;-60
2024/02/02 03:27:00;;;;;;;28.33;18.60;;;5.40;99.90;;;;;;5011852;28;20255;-60
2024/02/02 03:29:27;;;;;;;24.67;18.83;;;5.40;99.90;;;;;;5025187;28;20711;-60
2024/02/02 03:31:55;;;;;;;27.37;18.83;;;5.30;99.90;;;;;;5031096;28;20723;-60
2024/02/02 03:34:22;;;;;;;26.93;19.77;;;5.30;99.90;;;;;;5031565;28;20213;-60
2024/02/02 03:36:49;;;;;;;24.40;19.17;;;5.40;99.90;;;;;;5014681;28;20208;-60
2024/02/02 03:39:17;;;;;;;26.30;22.03;;;5.40;99.90;;;;;;5012089;28;20202;-60
2024/02/02 03:41:44;;;;;;;26.53;20.00;;;5.30;99.90;;;;;;5011796;28;20316;-60
2024/02/02 03:44:11;;;;;;;32.97;24.40;;;5.20;99.90;;;;;;5015750;28;20207;-59
2024/02/02 03:46:38;;;;;;;31.47;21.97;;;5.30;99.90;;;;;;5016456;28;20257;-59
2024/02/02 03:49:06;;;;;;;28.83;20.73;;;5.10;99.90;;;;;;5016554;28;20225;-60
2024/02/02 03:51:33;;;;;;;29.93;19.40;;;5.20;99.90;;;;;;5016436;28;20228;-61
2024/02/02 03:54:00;;;;;;;25.37;18.73;;;5.20;99.90;;;;;;5015182;28;20298;-60
2024/02/02 03:56:27;;;;;;;24.07;18.27;;;5.30;99.90;;;;;;5016155;28;20622;-59
2024/02/02 03:58:54;;;;;;;24.20;18.57;;;5.30;99.90;;;;;;5032780;28;20228;-60
2024/02/02 04:01:21;;;;;;;26.23;19.97;;;5.30;99.90;;;;;;5035553;28;20229;-60
2024/02/02 04:03:48;;;;;;;28.33;20.87;;;5.20;99.90;;;;;;5034802;28;20206;-60
2024/02/02 04:06:16;;;;;;;29.27;22.03;;;5.20;99.90;;;;;;5023693;28;20561;-60
2024/02/02 04:08:43;;;;;;;32.77;22.33;;;5.10;99.90;;;;;;5015566;28;20261;-60
2024/02/02 04:11:10;;;;;;;32.47;22.63;;;5.00;99.90;;;;;;5015741;28;20230;-59
2024/02/02 04:13:37;;;;;;;28.87;22.07;;;5.10;99.90;;;;;;5015380;28;20267;-59
2024/02/02 04:16:05;;;;;;;36.03;25.00;;;5.20;99.90;;;;;;5015636;28;20249;-59
2024/02/02 04:18:32;;;;;;;29.30;21.33;;;5.20;99.90;;;;;;5015745;28;20209;-59
2024/02/02 04:20:59;;;;;;;30.33;22.83;;;5.10;99.90;;;;;;5015602;28;20774;-59
2024/02/02 04:23:27;;;;;;;28.23;21.80;;;5.20;99.90;;;;;;5014851;28;20682;-59
2024/02/02 04:25:54;;;;;;;28.20;20.80;;;5.20;99.90;;;;;;5015650;28;20201;-59
2024/02/02 04:28:21;;;;;;;28.73;21.63;;;5.30;99.90;;;;;;5016703;28;20201;-59
2024/02/02 04:30:48;;;;;;;28.90;22.37;;;5.30;99.90;;;;;;5016514;28;20232;-59
2024/02/02 04:33:15;;;;;;;25.60;19.70;;;5.20;99.90;;;;;;5014587;28;20206;-59
2024/02/02 04:35:42;;;;;;;28.67;20.60;;;5.20;99.90;;;;;;5010005;28;20212;-59
2024/02/02 04:38:09;;;;;;;27.50;20.10;;;5.20;99.90;;;;;;5031078;28;20203;-59
2024/02/02 04:40:38;;;;;;;30.73;21.53;;;5.20;99.90;;;;;;5034842;28;20270;-59
2024/02/02 04:43:05;;;;;;;28.13;21.30;;;5.20;99.90;;;;;;5033898;28;20201;-59
2024/02/02 04:45:32;;;;;;;28.60;20.40;;;5.30;99.90;;;;;;5029557;28;20251;-59
2024/02/02 04:47:59;;;;;;;30.07;20.77;;;5.30;99.90;;;;;;5015079;28;20209;-59
2024/02/02 04:50:28;;;;;;;28.57;19.90;;;5.30;99.90;;;;;;5037172;23;20311;-63
2024/02/02 04:52:55;;;;;;;27.47;20.53;;;5.40;99.90;;;;;;5013914;28;20374;-63
2024/02/02 04:55:22;;;;;;;32.13;21.30;;;5.20;99.90;;;;;;5012822;28;20195;-63
2024/02/02 04:57:50;;;;;;;27.47;18.80;;;5.30;99.90;;;;;;5014131;28;20257;-63
2024/02/02 05:00:18;;;;;;;27.67;18.90;;;5.40;99.90;;;;;;5032865;28;20259;-63
2024/02/02 05:02:45;;;;;;;28.77;21.23;;;5.40;99.90;;;;;;5030890;28;20208;-63
2024/02/02 05:05:12;;;;;;;26.67;19.23;;;5.30;99.90;;;;;;5032433;28;20281;-63
2024/02/02 05:07:39;;;;;;;32.23;19.57;;;5.20;99.90;;;;;;5011762;28;20673;-63
2024/02/02 05:10:08;;;;;;;24.73;19.10;;;5.30;99.90;;;;;;5013742;28;20700;-63
2024/02/02 05:12:35;;;;;;;27.47;20.60;;;5.40;99.90;;;;;;5012934;28;20204;-61
2024/02/02 05:15:04;;;;;;;27.07;20.70;;;5.30;99.90;;;;;;5013862;28;20202;-61
2024/02/02 05:17:31;;;;;;;29.10;20.17;;;5.20;99.90;;;;;;5017405;28;20264;-61
2024/02/02 05:19:58;;;;;;;28.07;20.07;;;5.20;99.90;;;;;;5033733;28;20210;-61
2024/02/02 05:22:25;;;;;;;30.43;20.07;;;5.60;99.90;;;;;;5032899;28;20207;-61
2024/02/02 05:24:52;;;;;;;28.70;21.27;;;5.10;99.90;;;;;;5033395;28;20202;-61
2024/02/02 05:27:22;;;;;;;29.87;21.50;;;5.20;99.90;;;;;;5014873;28;20272;-61
2024/02/02 05:29:49;;;;;;;30.20;20.87;;;5.20;99.90;;;;;;5013461;28;20269;-61
2024/02/02 05:32:18;;;;;;;32.10;22.43;;;5.00;99.90;;;;;;5012931;28;20289;-61
2024/02/02 05:34:45;;;;;;;31.87;22.73;;;5.20;99.90;;;;;;5013643;28;20209;-61
2024/02/02 05:37:12;;;;;;;33.63;21.77;;;5.10;99.90;;;;;;5013343;28;20202;-61
2024/02/02 05:39:39;;;;;;;33.97;20.90;;;5.30;99.90;;;;;;5014307;28;20206;-61
2024/02/02 05:42:06;;;;;;;30.07;21.13;;;5.20;99.90;;;;;;5012824;28;20228;-61
2024/02/02 05:44:33;;;;;;;26.50;19.93;;;5.20;99.90;;;;;;5013527;28;20263;-63
2024/02/02 05:47:00;;;;;;;29.57;20.20;;;5.30;99.90;;;;;;5013456;28;20201;-63
2024/02/02 05:49:28;;;;;;;29.40;19.47;;;5.20;99.90;;;;;;5013483;28;20248;-61
2024/02/02 05:51:55;;;;;;;29.07;19.07;;;5.00;99.90;;;;;;5012492;28;20237;-61
2024/02/02 05:54:22;;;;;;;32.03;21.27;;;5.40;99.90;;;;;;5013239;28;20217;-61
2024/02/02 05:56:49;;;;;;;28.10;19.37;;;5.30;99.90;;;;;;5012613;28;20210;-61
2024/02/02 05:59:16;;;;;;;25.13;19.63;;;5.30;99.90;;;;;;5013755;28;20276;-61
2024/02/02 06:01:43;;;;;;;24.97;18.17;;;5.20;99.90;;;;;;5012362;28;20218;-61
2024/02/02 06:04:10;;;;;;;27.40;18.83;;;5.30;99.90;;;;;;5013040;28;20206;-61
2024/02/02 06:06:38;;;;;;;26.80;18.20;;;5.20;99.90;;;;;;5012739;28;20206;-61
2024/02/02 06:09:05;;;;;;;24.53;18.00;;;5.20;99.90;;;;;;5013400;28;20207;-61
2024/02/02 06:11:32;;;;;;;30.07;19.33;;;5.10;99.90;;;;;;5012943;28;20257;-62
2024/02/02 06:13:59;;;;;;;24.23;17.67;;;5.20;99.90;;;;;;5012257;28;20212;-61
2024/02/02 06:16:26;;;;;;;26.30;18.77;;;5.00;99.90;;;;;;5012890;28;20205;-61
2024/02/02 06:18:54;;;;;;;27.47;19.43;;;5.20;99.90;;;;;;5013211;28;20205;-61
2024/02/02 06:21:21;;;;;;;31.73;21.07;;;5.20;99.90;;;;;;5012959;28;20281;-61
2024/02/02 06:23:49;;;;;;;30.97;19.70;;;5.10;99.90;;;;;;5012065;28;20241;-61
2024/02/02 06:26:16;;;;;;;31.77;20.97;;;5.10;99.90;;;;;;5018683;28;20200;-61
2024/02/02 06:28:43;;;;;;;29.43;19.73;;;5.30;99.90;;;;;;5031819;28;20200;-61
2024/02/02 06:31:10;;;;;;;31.70;20.47;;;5.20;99.90;;;;;;5032461;28;20223;-62
2024/02/02 06:33:37;;;;;;;34.67;22.53;;;5.30;99.90;;;;;;5031316;28;20276;-61
2024/02/02 06:36:04;;;;;;;29.87;20.40;;;5.30;99.90;;;;;;5025759;28;20205;-62
2024/02/02 06:38:31;;;;;;;35.87;20.80;;;5.20;99.90;;;;;;5012028;28;20623;-61
2024/02/02 06:40:59;;;;;;;27.50;19.87;;;5.20;99.90;;;;;;5012316;28;20645;-61
2024/02/02 06:43:26;;;;;;;34.37;21.33;;;5.40;99.90;;;;;;5011738;28;20200;-61
2024/02/02 06:45:54;;;;;;;33.20;21.37;;;5.40;99.90;;;;;;5012015;28;20253;-61
2024/02/02 06:48:21;;;;;;;35.13;21.10;;;5.40;99.90;;;;;;5012564;28;20204;-61
2024/02/02 06:50:48;;;;;;;34.93;21.03;;;5.50;99.90;;;;;;5011942;28;20234;-61
2024/02/02 06:53:16;;;;;;;31.67;22.10;;;5.50;99.90;;;;;;5011336;28;20286;-61
2024/02/02 06:55:43;;;;;;;34.03;24.43;;;5.50;99.90;;;;;;5011994;28;20617;-61
2024/02/02 06:58:26;;;;;;;41.73;27.70;;;5.60;99.90;;;;;;5011807;28;20666;-61
2024/02/02 07:00:53;;;;;;;43.07;27.40;;;5.60;99.90;;;;;;5011880;28;20230;-61
2024/02/02 07:03:20;;;;;;;38.53;24.53;;;5.60;99.90;;;;;;5011160;28;20205;-61
2024/02/02 07:05:47;;;;;;;34.87;23.37;;;5.60;99.90;;;;;;5011627;28;20247;-61
2024/02/02 07:08:14;;;;;;;33.20;22.53;;;5.60;99.90;;;;;;5026873;28;20285;-62
2024/02/02 07:10:41;;;;;;;31.47;21.03;;;5.50;99.90;;;;;;5031373;28;20231;-61
2024/02/02 07:13:09;;;;;;;32.03;21.43;;;5.50;99.90;;;;;;5028602;28;20257;-61
2024/02/02 07:15:41;;;;;;;33.80;23.30;;;5.50;99.90;;;;;;5030002;28;20246;-61
2024/02/02 07:18:26;;;;;;;26.23;19.97;;;5.50;99.90;;;;;;5023995;28;20575;-61
2024/02/02 07:21:13;;;;;;;32.97;24.33;;;5.50;99.90;;;;;;5011747;28;20247;-62
2024/02/02 07:23:41;;;;;;;32.13;22.37;;;5.50;99.90;;;;;;5011115;28;20204;-61
2024/02/02 07:26:16;;;;;;;35.83;22.20;;;5.60;99.90;;;;;;5011698;28;20193;-61
2024/02/02 07:28:43;;;;;;;31.70;21.63;;;5.70;99.90;;;;;;5022463;28;20193;-61
2024/02/02 07:31:22;;;;;;;28.07;21.47;;;5.60;99.90;;;;;;5031608;28;20690;-61
2024/02/02 07:33:49;;;;;;;30.80;22.57;;;5.70;99.90;;;;;;5031682;28;20253;-62
2024/02/02 07:36:26;;;;;;;33.47;22.40;;;5.70;99.90;;;;;;5024975;28;20196;-61
2024/02/02 07:38:54;;;;;;;26.57;20.80;;;5.80;99.90;;;;;;5015855;28;20203;-62
2024/02/02 07:41:24;;;;;;;31.43;22.50;;;5.80;99.90;;;;;;5025446;28;20284;-62
2024/02/02 07:43:51;;;;;;;30.60;21.60;;;5.80;99.90;;;;;;5023374;28;20204;-62
2024/02/02 07:46:20;;;;;;;31.27;21.73;;;5.80;99.90;;;;;;5023607;28;20200;-62
2024/02/02 07:48:48;;;;;;;32.30;22.57;;;5.80;99.90;;;;;;5016664;28;20210;-62
2024/02/02 07:51:16;;;;;;;29.83;21.27;;;6.00;99.90;;;;;;5012174;28;20246;-61
2024/02/02 07:53:43;;;;;;;34.07;23.47;;;6.00;99.90;;;;;;5011143;28;20205;-61
2024/02/02 07:56:10;;;;;;;29.67;20.93;;;6.00;99.90;;;;;;5011621;28;20193;-61
2024/02/02 07:58:39;;;;;;;27.70;20.90;;;6.00;99.90;;;;;;5011674;28;20205;-61
2024/02/02 08:01:06;;;;;;;28.43;21.63;;;5.90;99.90;;;;;;5011493;28;20221;-61
2024/02/02 08:03:35;;;;;;;28.27;20.77;;;6.00;99.90;;;;;;5011326;28;20212;-62
2024/02/02 08:06:01;;;;;;;28.17;21.17;;;6.10;99.90;;;;;;5011149;28;20613;-61
2024/02/02 08:08:31;;;;;;;28.47;21.13;;;6.10;99.90;;;;;;5011820;28;20232;-62
2024/02/02 08:10:59;;;;;;;27.27;20.80;;;6.00;99.90;;;;;;5011493;28;20232;-62
2024/02/02 08:13:26;;;;;;;27.10;19.73;;;5.90;99.90;;;;;;5010690;28;20213;-61
2024/02/02 08:15:53;;;;;;;29.93;20.87;;;6.00;99.90;;;;;;5011394;28;20623;-61
2024/02/02 08:18:20;;;;;;;31.43;21.33;;;6.10;99.90;;;;;;5017537;28;20197;-62
2024/02/02 08:20:48;;;;;;;33.37;21.43;;;6.00;99.90;;;;;;5031153;28;20228;-61
2024/02/02 08:23:16;;;;;;;28.67;20.93;;;6.10;99.90;;;;;;5031190;28;20597;-61
2024/02/02 08:25:42;;;;;;;28.90;21.93;;;6.30;99.90;;;;;;5030702;28;20691;-61
2024/02/02 08:28:10;;;;;;;32.67;23.70;;;6.30;99.90;;;;;;4991907;28;20232;-62
2024/02/02 08:30:37;;;;;;;24.97;18.77;;;6.40;99.90;;;;;;4995460;28;20706;-61
2024/02/02 08:33:04;;;;;;;26.40;20.10;;;6.30;99.90;;;;;;4994433;28;20662;-62
2024/02/02 08:35:32;;;;;;;28.47;20.17;;;6.40;99.90;;;;;;4995397;28;20209;-61
2024/02/02 08:38:02;;;;;;;28.57;20.30;;;6.50;99.90;;;;;;5013496;28;20205;-61
2024/02/02 08:40:38;;;;;;;24.43;17.93;;;6.50;99.90;;;;;;5014740;28;20286;-61
2024/02/02 08:43:09;;;;;;;26.13;19.83;;;6.60;99.90;;;;;;5014152;28;20320;-62
2024/02/02 08:46:12;;;;;;;27.67;19.30;;;6.50;99.90;;;;;;5014552;28;20263;-62
2024/02/02 08:48:45;;;;;;;26.27;18.03;;;6.60;99.90;;;;;;5010993;28;20200;-62
2024/02/02 08:51:52;;;;;;;27.43;18.90;;;6.80;99.90;;;;;;5034020;28;20665;-62
2024/02/02 08:54:40;;;;;;;27.20;18.73;;;6.90;99.90;;;;;;5034361;28;20208;-62
2024/02/02 08:57:32;;;;;;;20.33;15.80;;;6.90;99.90;;;;;;5022080;28;20198;-62
2024/02/02 09:00:04;;;;;;;21.03;16.07;;;6.90;99.90;;;;;;5014307;28;20212;-62
2024/02/02 09:03:05;;;;;;;20.33;15.17;;;6.90;99.90;;;;;;5013541;28;20203;-61
2024/02/02 09:05:48;;;;;;;23.73;16.97;;;6.80;99.90;;;;;;5013961;28;20205;-61
2024/02/02 09:08:34;;;;;;;19.03;14.50;;;6.90;99.90;;;;;;5013970;28;20204;-61
2024/02/02 09:11:27;;;;;;;18.40;14.60;;;7.00;99.90;;;;;;5014552;28;20228;-61
2024/02/02 09:14:06;;;;;;;22.47;14.83;;;6.90;99.90;;;;;;5011513;28;20210;-62
2024/02/02 09:16:44;;;;;;;24.30;15.13;;;7.00;99.90;;;;;;5013928;28;20575;-61
2024/02/02 09:19:26;;;;;;;21.47;14.30;;;7.10;99.90;;;;;;5012394;28;20594;-61
2024/02/02 09:21:54;;;;;;;19.27;13.20;;;;;;;;;;5013406;28;20216;-62
2024/02/02 09:24:34;;;;;;;16.73;13.93;;;7.20;99.90;;;;;;5014203;28;20267;-62
2024/02/02 09:27:03;;;;;;;24.98;17.98;;;7.40;99.90;;;;;;5021063;28;20446;-61
2024/02/02 09:29:31;;;;;;;14.90;12.50;;;7.40;99.90;;;;;;5032694;28;20207;-61
2024/02/02 09:31:58;;;;;;;17.30;12.93;;;7.50;99.90;;;;;;5032360;28;20235;-61
2024/02/02 09:34:25;;;;;;;17.40;13.53;;;7.60;99.90;;;;;;5033626;28;20205;-60
2024/02/02 09:36:53;;;;;;;16.97;13.23;;;7.30;99.90;;;;;;5032385;28;20208;-61
2024/02/02 09:39:46;;;;;;;22.07;13.87;;;7.60;99.90;;;;;;5033391;28;20258;-61
2024/02/02 09:42:46;;;;;;;17.97;14.40;;;7.50;99.90;;;;;;5031836;28;20224;-61
2024/02/02 09:45:29;;;;;;;17.00;12.20;;;7.60;99.90;;;;;;5025199;28;20224;-61
2024/02/02 09:48:10;;;;;;;19.97;14.50;;;8.10;99.90;;;;;;5013825;28;20209;-61
2024/02/02 09:50:53;;;;;;;19.10;13.03;;;7.60;99.90;;;;;;5013671;28;20280;-61
2024/02/02 09:54:02;;;;;;;16.07;12.37;;;7.50;99.90;;;;;;5012549;28;20697;-61
2024/02/02 09:56:43;;;;;;;17.87;13.27;;;7.60;99.90;;;;;;5013037;28;20205;-66
2024/02/02 09:59:22;;;;;;;18.70;14.20;;;7.70;99.90;;;;;;5013403;28;20209;-60
2024/02/02 10:02:10;;;;;;;15.50;11.90;;;7.70;99.90;;;;;;5012516;28;20225;-62
2024/02/02 10:04:51;;;;;;;18.63;14.47;;;7.70;99.90;;;;;;5013193;28;20206;-65
2024/02/02 10:07:37;;;;;;;17.97;12.57;;;7.00;99.90;;;;;;5013313;28;20293;-60
2024/02/02 10:10:31;;;;;;;15.93;12.93;;;7.80;99.90;;;;;;5013272;28;20273;-64
2024/02/02 10:13:04;;;;;;;15.20;11.80;;;;;;;;;;5007836;28;20236;-71
2024/02/02 10:16:10;;;;;;;23.10;14.33;;;7.90;99.90;;;;;;5012708;28;20215;-68
2024/02/02 10:19:12;;;;;;;17.10;12.90;;;7.80;99.90;;;;;;4971102;28;20206;-67
2024/02/02 10:21:49;;;;;;;16.40;12.10;;;7.80;99.90;;;;;;5012676;28;20216;-66
2024/02/02 10:24:42;;;;;;;14.53;12.77;;;7.70;99.90;;;;;;5012660;28;20628;-66
2024/02/02 10:27:36;;;;;;;17.93;13.27;;;7.70;99.90;;;;;;5012847;28;20206;-66
2024/02/02 10:30:10;;;;;;;17.63;13.03;;;7.60;99.90;;;;;;5012739;28;20208;-68
2024/02/02 10:33:05;;;;;;;18.03;12.57;;;7.50;99.90;;;;;;5011495;28;20229;-66
2024/02/02 10:35:39;;;;;;;16.07;13.77;;;7.60;99.90;;;;;;5012339;28;20658;-64
2024/02/02 10:38:20;;;;;;;14.57;11.70;;;7.60;99.90;;;;;;5012541;28;20267;-65
2024/02/02 10:40:52;;;;;;;17.30;12.57;;;7.70;99.90;;;;;;5012720;28;20322;-66
2024/02/02 10:43:37;;;;;;;13.67;11.93;;;7.60;99.90;;;;;;5011654;28;20279;-65
2024/02/02 10:46:18;;;;;;;17.30;12.93;;;7.60;99.90;;;;;;5012082;28;20687;-66
2024/02/02 10:49:27;;;;;;;19.10;13.30;;;7.60;99.90;;;;;;5012016;28;20236;-67
2024/02/02 10:52:05;;;;;;;14.83;12.03;;;7.60;99.90;;;;;;5024146;22;20613;-65
2024/02/02 10:54:41;;;;;;;15.77;11.70;;;7.60;99.90;;;;;;5032092;28;20299;-63
2024/02/02 10:57:26;;;;;;;14.60;11.70;;;7.90;99.90;;;;;;5024089;28;20207;-68
2024/02/02 11:00:07;;;;;;;16.90;13.63;;;7.80;99.90;;;;;;5052309;28;20299;-66
2024/02/02 11:02:44;;;;;;;15.67;12.90;;;7.70;99.90;;;;;;5051447;28;20235;-68
2024/02/02 11:05:22;;;;;;;16.50;12.97;;;7.70;99.90;;;;;;5050968;28;20556;-64
2024/02/02 11:07:56;;;;;;;18.37;12.50;;;7.80;99.90;;;;;;5052293;28;20203;-72
2024/02/02 11:10:29;;;;;;;16.70;13.50;;;7.80;99.90;;;;;;5055491;28;20629;-73
2024/02/02 11:13:10;;;;;;;18.17;14.30;;;7.80;99.90;;;;;;5051386;28;20308;-69
2024/02/02 11:15:50;;;;;;;15.43;12.20;;;7.80;99.90;;;;;;5035919;28;20250;-71
2024/02/02 11:18:43;;;;;;;19.53;12.83;;;7.80;99.90;;;;;;5035387;28;20240;-69
2024/02/02 11:21:25;;;;;;;15.70;12.43;;;7.90;99.90;;;;;;5052238;28;20215;-70
2024/02/02 11:23:56;;;;;;;17.90;13.10;;;;;;;;;;5048934;28;20197;-69
2024/02/02 11:26:30;;;;;;;16.70;12.70;;;8.10;99.90;;;;;;5054350;28;20254;-68
2024/02/02 11:29:09;;;;;;;16.27;12.40;;;8.40;99.90;;;;;;5051822;28;20205;-69
2024/02/02 11:31:57;;;;;;;16.40;13.23;;;8.50;99.90;;;;;;5051537;28;20270;-68
2024/02/02 11:34:34;;;;;;;15.13;12.03;;;8.70;99.90;;;;;;5051486;28;20211;-61
2024/02/02 11:37:13;;;;;;;13.20;11.13;;;8.70;99.90;;;;;;5051030;28;20204;-71
2024/02/02 11:39:53;;;;;;;13.80;11.37;;;;;;;;;;5051714;28;20205;-71
2024/02/02 11:42:27;;;;;;;13.20;11.80;;;8.80;99.90;;;;;;5050682;28;20223;-66
2024/02/02 11:44:55;;;;;;;12.23;10.53;;;;;;;;;;5050319;28;20195;-66
2024/02/02 11:47:24;;;;;;;15.00;10.40;;;;;;;;;;5051003;28;20200;-67
2024/02/02 11:50:04;;;;;;;10.33;8.70;;;8.90;99.90;;;;;;5051655;28;20202;-65
2024/02/02 11:52:37;;;;;;;11.00;9.83;;;8.90;99.90;;;;;;5050456;28;20606;-66
2024/02/02 11:55:16;;;;;;;9.63;8.67;;;9.00;99.90;;;;;;5050632;28;20196;-61
2024/02/02 11:57:48;;;;;;;10.73;8.50;;;9.00;99.90;;;;;;5029869;28;20267;-68
2024/02/02 12:00:19;;;;;;;9.13;8.10;;;;;;;;;;5028232;28;20750;-67
2024/02/02 12:03:06;;;;;;;6.73;6.10;;;;;;;;;;5028165;28;20204;-71
2024/02/02 12:05:44;;;;;;;7.70;7.00;;;9.00;99.90;;;;;;5043259;28;20207;-68
2024/02/02 12:08:20;;;;;;;6.67;6.00;;;8.90;99.90;;;;;;5035370;28;20258;-65
2024/02/02 12:10:48;;;;;;;8.93;7.97;;;8.90;99.90;;;;;;5031631;28;20281;-67
2024/02/02 12:13:22;;;;;;;9.50;7.93;;;8.80;99.90;;;;;;5029742;28;20243;-69
2024/02/02 12:15:52;;;;;;;7.70;7.00;;;8.80;99.90;;;;;;5034414;28;20859;-69
2024/02/02 12:18:19;;;;;;;9.03;8.13;;;9.00;99.90;;;;;;5035684;28;20207;-68
2024/02/02 12:20:46;;;;;;;9.37;8.53;;;9.10;99.90;;;;;;5031761;28;20278;-66
2024/02/02 12:23:15;;;;;;;7.73;7.03;;;9.30;99.90;;;;;;5022814;28;20201;-67
2024/02/02 12:25:42;;;;;;;8.80;7.67;;;;;;;;;;5042667;28;20205;-67
2024/02/02 12:28:12;;;;;;;8.60;6.80;;;9.80;99.90;;;;;;5035185;28;20205;-69
2024/02/02 12:30:39;;;;;;;7.33;6.27;;;10.10;99.90;;;;;;5033727;28;20290;-71
2024/02/02 12:33:07;;;;;;;10.50;7.63;;;10.30;99.90;;;;;;5036828;28;20224;-69
2024/02/02 12:35:34;;;;;;;7.97;6.80;;;10.40;99.90;;;;;;5021631;28;20624;-73
2024/02/02 12:38:01;;;;;;;5.40;4.93;;;10.40;99.90;;;;;;5029605;28;20621;-71
2024/02/02 12:40:30;;;;;;;5.37;4.87;;;10.40;99.90;;;;;;5034470;28;20232;-72
2024/02/02 12:42:58;;;;;;;4.10;3.80;;;10.40;99.90;;;;;;5033674;28;20205;-72
2024/02/02 12:45:25;;;;;;;3.60;3.37;;;10.40;99.90;;;;;;5034474;28;20205;-68
2024/02/02 12:47:53;;;;;;;2.97;2.70;;;10.50;99.90;;;;;;5032438;28;20761;-70
2024/02/02 12:50:21;;;;;;;4.63;2.83;;;10.50;99.90;;;;;;5028330;28;20651;-66
2024/02/02 12:52:50;;;;;;;2.30;2.10;;;10.50;99.90;;;;;;5021001;28;20265;-66
2024/02/02 12:55:21;;;;;;;3.43;3.20;;;10.40;99.90;;;;;;5031235;28;20672;-68
2024/02/02 12:57:53;;;;;;;3.20;2.97;;;10.20;99.90;;;;;;5030282;28;20284;-67
2024/02/02 13:00:21;;;;;;;2.80;2.37;;;10.00;99.90;;;;;;5034313;28;20206;-68